ePrivacy and GPDR Cookie Consent by Cookie Consent
EmailTwitter


Observations de surface / France / LFBO (07630)

Régions: Québec | Canada | États-Unis | Europe | France | UK | Ailleurs
Station
Affichage
Infos & localisation pour LFBO (07630) | Aide pour décoder les METARs

Observations prises le 2021-10-22 à 22H30 UTC à TOULOUSE/BLAGNAC, FR (LFBO)

Température: 12.0 Celsius

Point de rosée: 11.0 Celsius

Humidité relative: 94%

Vents: Nord-ouest à 13 km/h ou 7 noeuds.

Pression au niveau moyen de la mer: 102.50 kilopascals.

Observation METAR:

LFBO 222230Z AUTO 32007KT CAVOK 12/11 Q1025 NOSIG=